Time;durP1;ratioP1;P1;durP2;ratioP2;P2;SDS_P1;SDS_P2;PMS_P1;PMS_P2;Temp;Humidity;BMP_temperature;BMP_pressure;BME280_temperature;BME280_humidity;BME280_pressure;Samples;Min_cycle;Max_cycle;Signal;HPM_P1;HPM_P2
2023/04/27 00:00:59;;;;;;;;;;;;;;;8.14;55.22;101372.78;4104415;28;20021;-68
2023/04/27 00:03:04;;;;;;;;;;;;;;;8.12;55.36;101356.78;4104433;28;20017;-68
2023/04/27 00:05:06;;;;;;;;;;;;;;;8.14;55.30;101361.19;4104823;28;20456;-68
2023/04/27 00:07:08;;;;;;;;;;;;;;;8.15;55.40;101362.88;4105000;28;20611;-68
2023/04/27 00:09:11;;;;;;;;;;;;;;;8.14;55.52;101359.34;4104279;28;20034;-68
2023/04/27 00:11:13;;;;;;;;;;;;;;;8.14;55.19;101353.97;4104730;28;20753;-68
2023/04/27 00:13:15;;;;;;;;;;;;;;;8.14;55.21;101359.34;4103820;28;20029;-68
2023/04/27 00:15:17;;;;;;;;;;;;;;;8.14;55.40;101359.34;4104249;28;19962;-68
2023/04/27 00:17:20;;;;;;;;;;;;;;;8.13;55.26;101349.56;4103040;28;20024;-68
2023/04/27 00:19:22;;;;;;;;;;;;;;;8.14;55.43;101353.13;4103903;28;20017;-68
2023/04/27 00:21:24;;;;;;;;;;;;;;;8.12;55.37;101348.72;4104417;28;20025;-68
2023/04/27 00:23:26;;;;;;;;;;;;;;;8.12;55.45;101350.56;4104538;28;20044;-68
2023/04/27 00:25:30;;;;;;;;;;;;;;;8.10;55.62;101353.41;4056351;29;20021;-68
2023/04/27 00:27:32;;;;;;;;;;;;;;;8.10;55.48;101347.16;4104464;28;20616;-68
2023/04/27 00:29:34;;;;;;;;;;;;;;;8.08;55.63;101355.38;4103955;28;20014;-68
2023/04/27 00:31:35;;;;;;;;;;;;;;;8.09;55.61;101346.31;4086744;29;20120;-68
2023/04/27 00:33:38;;;;;;;;;;;;;;;8.10;55.36;101348.03;4104308;28;20009;-68
2023/04/27 00:35:40;;;;;;;;;;;;;;;8.09;55.50;101351.69;4104009;28;20555;-68
2023/04/27 00:37:43;;;;;;;;;;;;;;;8.11;55.42;101354.25;4103124;28;20013;-68
2023/04/27 00:39:45;;;;;;;;;;;;;;;8.08;55.50;101355.38;4071737;29;20033;-68
2023/04/27 00:41:50;;;;;;;;;;;;;;;8.09;55.28;101351.69;4104427;28;20033;-68
2023/04/27 00:43:51;;;;;;;;;;;;;;;8.10;55.47;101360.63;4104187;28;20013;-68
2023/04/27 00:45:54;;;;;;;;;;;;;;;8.09;55.45;101361.63;4072131;29;20377;-68
2023/04/27 00:47:56;;;;;;;;;;;;;;;8.06;55.44;101360.06;4087613;28;20464;-68
2023/04/27 00:49:58;;;;;;;;;;;;;;;8.06;55.58;101359.22;4102950;28;20017;-68
2023/04/27 00:52:01;;;;;;;;;;;;;;;8.05;55.62;101361.03;4083749;29;20025;-68
2023/04/27 00:54:04;;;;;;;;;;;;;;;8.06;55.25;101361.91;4103963;28;20016;-68
2023/04/27 00:56:07;;;;;;;;;;;;;;;8.06;55.46;101368.13;4086329;28;20021;-68
2023/04/27 00:58:10;;;;;;;;;;;;;;;8.08;55.54;101370.69;4087052;29;20033;-68
2023/04/27 01:00:15;;;;;;;;;;;;;;;8.07;55.62;101366.28;4103717;28;20029;-68
2023/04/27 01:02:17;;;;;;;;;;;;;;;8.05;55.57;101374.50;4086479;29;20017;-68
2023/04/27 01:04:21;;;;;;;;;;;;;;;8.05;55.50;101369.13;4094610;29;20081;-67
2023/04/27 01:06:23;;;;;;;;;;;;;;;8.04;55.58;101361.19;4103772;28;20379;-68
2023/04/27 01:08:25;;;;;;;;;;;;;;;8.05;55.44;101365.59;4103535;28;20477;-68
2023/04/27 01:10:27;;;;;;;;;;;;;;;8.05;55.30;101366.44;4104167;28;20037;-68
2023/04/27 01:12:29;;;;;;;;;;;;;;;8.03;55.60;101368.44;4070933;29;20434;-68
2023/04/27 01:14:33;;;;;;;;;;;;;;;8.01;55.79;101375.81;4103857;28;20021;-68
2023/04/27 01:16:36;;;;;;;;;;;;;;;8.02;55.83;101376.63;4104414;28;20433;-68
2023/04/27 01:18:39;;;;;;;;;;;;;;;8.03;55.76;101372.97;4089898;29;20025;-68
2023/04/27 01:20:42;;;;;;;;;;;;;;;8.06;55.52;101375.38;4106191;28;20029;-68
2023/04/27 01:22:44;;;;;;;;;;;;;;;8.05;55.59;101376.34;4089874;29;20018;-68
2023/04/27 01:24:48;;;;;;;;;;;;;;;8.03;55.76;101379.19;4089816;29;20021;-68
2023/04/27 01:26:52;;;;;;;;;;;;;;;8.02;55.86;101374.78;4106345;28;20069;-68
2023/04/27 01:28:54;;;;;;;;;;;;;;;8.01;55.75;101381.19;4106529;28;20065;-68
2023/04/27 01:30:56;;;;;;;;;;;;;;;8.00;55.97;101381.31;4106730;28;20009;-68
2023/04/27 01:33:00;;;;;;;;;;;;;;;7.97;56.12;101382.44;4106760;28;20057;-68
2023/04/27 01:35:02;;;;;;;;;;;;;;;7.94;56.19;101380.88;4089933;29;20013;-68
2023/04/27 01:37:04;;;;;;;;;;;;;;;7.95;56.15;101387.13;4106053;28;20551;-68
2023/04/27 01:39:08;;;;;;;;;;;;;;;7.94;56.05;101380.06;4107271;28;20028;-68
2023/04/27 01:41:12;;;;;;;;;;;;;;;7.93;56.16;101383.72;4107207;28;20038;-68
2023/04/27 01:43:14;;;;;;;;;;;;;;;7.91;56.14;101389.25;4106317;28;20021;-68
2023/04/27 01:45:16;;;;;;;;;;;;;;;7.93;56.19;101389.97;4089814;29;20643;-68
2023/04/27 01:47:18;;;;;;;;;;;;;;;7.92;56.39;101388.25;4106713;28;20017;-68
2023/04/27 01:49:20;;;;;;;;;;;;;;;7.92;56.41;101401.72;4105064;28;20013;-68
2023/04/27 01:51:22;;;;;;;;;;;;;;;7.90;56.29;101398.31;4074133;29;20026;-68
2023/04/27 01:53:24;;;;;;;;;;;;;;;7.89;56.65;101399.31;4089280;28;20359;-68
2023/04/27 01:55:26;;;;;;;;;;;;;;;7.88;56.53;101400.31;4089758;28;20013;-68
2023/04/27 01:57:30;;;;;;;;;;;;;;;7.87;56.83;101400.47;4106483;28;20024;-68
2023/04/27 01:59:32;;;;;;;;;;;;;;;7.87;56.63;101403.16;4089444;29;20037;-68
2023/04/27 02:01:34;;;;;;;;;;;;;;;7.87;56.69;101397.78;4105320;28;20348;-68
2023/04/27 02:03:36;;;;;;;;;;;;;;;7.89;56.73;101401.16;4106337;28;20009;-68
2023/04/27 02:05:38;;;;;;;;;;;;;;;7.88;56.85;101399.44;4073226;29;20018;-68
2023/04/27 02:07:40;;;;;;;;;;;;;;;7.88;57.03;101404.81;4105980;28;20116;-68
2023/04/27 02:09:42;;;;;;;;;;;;;;;7.88;57.01;101408.38;4088944;29;20057;-68
2023/04/27 02:11:47;;;;;;;;;;;;;;;7.87;57.18;101414.75;4104853;28;20699;-68
2023/04/27 02:13:50;;;;;;;;;;;;;;;7.83;57.08;101407.94;4106182;28;20017;-68
2023/04/27 02:15:52;;;;;;;;;;;;;;;7.83;57.36;101407.09;4089133;29;20025;-68
2023/04/27 02:17:56;;;;;;;;;;;;;;;7.82;57.67;101410.78;4089220;29;19934;-68
2023/04/27 02:19:58;;;;;;;;;;;;;;;7.80;57.36;101410.91;4088095;28;20013;-68
2023/04/27 02:22:01;;;;;;;;;;;;;;;7.82;57.21;101411.66;4089258;29;20045;-68
2023/04/27 02:24:04;;;;;;;;;;;;;;;7.84;57.32;101416.88;4073556;29;20030;-68
2023/04/27 02:26:06;;;;;;;;;;;;;;;7.85;57.20;101408.66;4105982;28;20016;-68
2023/04/27 02:28:08;;;;;;;;;;;;;;;7.84;57.05;101423.09;4088206;28;19994;-67
2023/04/27 02:30:12;;;;;;;;;;;;;;;7.82;56.99;101425.09;4103985;28;20049;-67
2023/04/27 02:32:14;;;;;;;;;;;;;;;7.81;57.20;101423.38;4104094;28;20017;-67
2023/04/27 02:34:16;;;;;;;;;;;;;;;7.80;57.12;101424.38;4088821;28;20461;-67
2023/04/27 02:36:18;;;;;;;;;;;;;;;7.79;56.84;101428.06;4104758;28;20381;-67
2023/04/27 02:38:20;;;;;;;;;;;;;;;7.80;56.57;101426.22;4088265;28;19930;-67
2023/04/27 02:40:22;;;;;;;;;;;;;;;7.80;56.19;101420.84;4105317;28;20029;-68
2023/04/27 02:42:25;;;;;;;;;;;;;;;7.80;56.07;101427.06;4073455;29;20022;-67
2023/04/27 02:44:27;;;;;;;;;;;;;;;7.80;55.83;101426.22;4105861;28;20021;-67
2023/04/27 02:46:30;;;;;;;;;;;;;;;7.81;55.69;101425.22;4087325;29;20013;-67
2023/04/27 02:48:33;;;;;;;;;;;;;;;7.80;55.62;101426.22;4105602;28;20411;-68
2023/04/27 02:50:41;;;;;;;;;;;;;;;7.80;55.74;101429.75;4104774;28;20033;-67
2023/04/27 02:52:43;;;;;;;;;;;;;;;7.80;55.66;101426.22;4086853;29;20021;-67
2023/04/27 02:54:45;;;;;;;;;;;;;;;7.80;55.28;101431.59;4105308;28;20026;-68
2023/04/27 02:56:47;;;;;;;;;;;;;;;7.80;55.24;101424.38;4104944;28;20022;-67
2023/04/27 02:58:49;;;;;;;;;;;;;;;7.79;55.04;101428.06;4088996;29;19933;-67
2023/04/27 03:00:53;;;;;;;;;;;;;;;7.78;55.08;101431.72;4104666;28;20053;-67
2023/04/27 03:02:57;;;;;;;;;;;;;;;7.78;54.97;101428.22;4105386;28;20480;-67
2023/04/27 03:04:59;;;;;;;;;;;;;;;7.78;55.27;101428.22;4088999;28;20436;-67
2023/04/27 03:07:02;;;;;;;;;;;;;;;7.78;54.96;101430.91;4103746;28;20021;-67
2023/04/27 03:09:05;;;;;;;;;;;;;;;7.76;54.84;101439.09;4105459;28;20037;-67
2023/04/27 03:11:08;;;;;;;;;;;;;;;7.77;54.90;101438.09;4100027;28;20045;-69
2023/04/27 03:13:11;;;;;;;;;;;;;;;7.76;54.84;101431.88;4087639;29;20021;-66
2023/04/27 03:15:13;;;;;;;;;;;;;;;7.75;54.80;101435.53;4105147;28;20041;-67
2023/04/27 03:17:15;;;;;;;;;;;;;;;7.74;55.14;101443.75;4104062;28;20009;-68
2023/04/27 03:19:21;;;;;;;;;;;;;;;7.74;54.86;101443.75;4105081;28;20363;-68
2023/04/27 03:21:25;;;;;;;;;;;;;;;7.72;55.25;101441.19;4104575;28;19993;-68
2023/04/27 03:23:30;;;;;;;;;;;;;;;7.71;55.06;101438.66;4104991;28;19977;-68
2023/04/27 03:25:33;;;;;;;;;;;;;;;7.71;55.12;101444.03;4104655;28;20577;-69
2023/04/27 03:27:35;;;;;;;;;;;;;;;7.72;54.83;101435.81;4105134;28;20640;-69
2023/04/27 03:29:37;;;;;;;;;;;;;;;7.70;54.88;101442.34;4105213;28;20073;-68
2023/04/27 03:31:41;;;;;;;;;;;;;;;7.69;54.82;101446.88;4103572;28;20025;-68
2023/04/27 03:33:45;;;;;;;;;;;;;;;7.69;54.99;101446.03;4105332;28;20064;-68
2023/04/27 03:35:55;;;;;;;;;;;;;;;7.70;55.47;101445.88;4072330;29;20021;-68
2023/04/27 03:37:58;;;;;;;;;;;;;;;7.71;55.69;101449.41;4104761;28;20439;-68
2023/04/27 03:40:00;;;;;;;;;;;;;;;7.70;55.38;101453.13;4104708;28;19930;-69
2023/04/27 03:42:02;;;;;;;;;;;;;;;7.69;55.42;101454.09;4071712;29;20438;-69
2023/04/27 03:44:05;;;;;;;;;;;;;;;7.68;55.47;101450.56;4088140;29;20025;-69
2023/04/27 03:46:08;;;;;;;;;;;;;;;7.68;55.34;101457.75;4102208;28;20016;-68
2023/04/27 03:48:10;;;;;;;;;;;;;;;7.68;55.62;101457.75;4086369;28;20598;-68
2023/04/27 03:50:12;;;;;;;;;;;;;;;7.67;55.68;101456.91;4086988;28;20037;-68
2023/04/27 03:52:16;;;;;;;;;;;;;;;7.67;55.30;101453.38;4104838;28;20021;-68
2023/04/27 03:54:18;;;;;;;;;;;;;;;7.67;55.41;101456.91;4104272;28;20025;-69
2023/04/27 03:56:21;;;;;;;;;;;;;;;7.68;55.35;101464.00;4086797;28;20022;-68
2023/04/27 03:58:25;;;;;;;;;;;;;;;7.69;55.41;101471.06;4104966;28;20064;-68
2023/04/27 04:00:57;;;;;;;;;;;;;;;7.69;55.11;101468.38;4090513;28;19969;-68
2023/04/27 04:03:00;;;;;;;;;;;;;;;7.69;55.05;101465.69;4087453;28;20405;-69
2023/04/27 04:05:02;;;;;;;;;;;;;;;7.68;55.09;101471.19;4102669;28;20017;-68
2023/04/27 04:07:04;;;;;;;;;;;;;;;7.67;54.96;101470.38;4089248;28;20642;-69
2023/04/27 04:09:08;;;;;;;;;;;;;;;7.67;55.45;101475.75;4103530;28;20359;-68
2023/04/27 04:11:10;;;;;;;;;;;;;;;7.66;55.84;101476.72;4087376;28;20037;-68
2023/04/27 04:13:13;;;;;;;;;;;;;;;7.67;55.92;101486.50;4086857;29;20021;-68
2023/04/27 04:15:16;;;;;;;;;;;;;;;7.66;55.82;101486.63;4088385;28;20025;-68
2023/04/27 04:17:18;;;;;;;;;;;;;;;7.64;56.09;101485.94;4102253;28;20058;-68
2023/04/27 04:19:22;;;;;;;;;;;;;;;7.63;56.35;101494.97;4102983;28;20016;-68
2023/04/27 04:21:24;;;;;;;;;;;;;;;7.61;56.56;101497.81;4102986;28;20354;-68
2023/04/27 04:23:26;;;;;;;;;;;;;;;7.61;56.96;101494.28;4103857;28;20021;-68
2023/04/27 04:25:30;;;;;;;;;;;;;;;7.61;56.83;101496.97;4087236;28;20029;-68
2023/04/27 04:27:35;;;;;;;;;;;;;;;7.60;56.95;101500.63;4104769;28;20432;-68
2023/04/27 04:29:37;;;;;;;;;;;;;;;7.60;57.06;101490.72;4071432;29;20347;-68
2023/04/27 04:31:40;;;;;;;;;;;;;;;7.60;56.92;101498.78;4103380;28;20033;-68
2023/04/27 04:33:44;;;;;;;;;;;;;;;7.60;57.05;101498.78;4088064;28;20017;-68
2023/04/27 04:35:46;;;;;;;;;;;;;;;7.58;57.18;101492.72;4087903;29;20036;-68
2023/04/27 04:37:49;;;;;;;;;;;;;;;7.60;57.22;101496.09;4087858;28;20024;-68
2023/04/27 04:39:51;;;;;;;;;;;;;;;7.59;56.92;101499.78;4086942;28;20029;-68
2023/04/27 04:41:54;;;;;;;;;;;;;;;7.58;57.03;101506.97;4104935;28;19970;-68
2023/04/27 04:43:57;;;;;;;;;;;;;;;7.58;57.34;101509.69;4086720;29;20018;-68
2023/04/27 04:45:59;;;;;;;;;;;;;;;7.58;57.52;101501.59;4088633;28;20075;-68
2023/04/27 04:48:03;;;;;;;;;;;;;;;7.63;57.32;101500.34;4102879;28;20025;-68
2023/04/27 04:50:08;;;;;;;;;;;;;;;7.63;57.59;101500.34;4104356;28;20766;-68
2023/04/27 04:52:10;;;;;;;;;;;;;;;7.64;57.46;101505.59;4105751;28;20026;-68
2023/04/27 04:54:12;;;;;;;;;;;;;;;7.65;57.32;101504.63;4107997;28;20025;-68
2023/04/27 04:56:15;;;;;;;;;;;;;;;7.67;57.26;101508.00;4091817;28;20049;-68
2023/04/27 04:58:19;;;;;;;;;;;;;;;7.68;56.99;101508.84;4091813;28;20017;-68
2023/04/27 05:00:21;;;;;;;;;;;;;;;7.66;57.37;101519.75;4091594;28;20479;-68
2023/04/27 05:02:23;;;;;;;;;;;;;;;7.67;57.47;101521.44;4091249;28;19966;-67
2023/04/27 05:04:26;;;;;;;;;;;;;;;7.66;57.68;101519.75;4107793;28;20433;-68
2023/04/27 05:06:28;;;;;;;;;;;;;;;7.66;57.45;101519.75;4107462;28;20021;-68
2023/04/27 05:08:30;;;;;;;;;;;;;;;7.66;57.76;101519.75;4108317;28;20025;-68
2023/04/27 05:10:32;;;;;;;;;;;;;;;7.66;57.89;101530.50;4107582;28;20021;-68
2023/04/27 05:12:34;;;;;;;;;;;;;;;7.65;57.68;101525.25;4107236;28;20809;-68
2023/04/27 05:14:37;;;;;;;;;;;;;;;7.63;57.73;101522.69;4107984;28;20021;-67
2023/04/27 05:16:39;;;;;;;;;;;;;;;7.61;57.77;101526.53;4106890;28;20030;-68
2023/04/27 05:18:41;;;;;;;;;;;;;;;7.61;57.85;101523.84;4107869;28;20046;-68
2023/04/27 05:20:43;;;;;;;;;;;;;;;7.61;57.90;101527.38;4107107;28;20036;-68
2023/04/27 05:22:45;;;;;;;;;;;;;;;7.61;57.79;101527.38;4107254;28;19930;-67
2023/04/27 05:24:47;;;;;;;;;;;;;;;7.60;57.75;101528.34;4107596;28;20025;-68
2023/04/27 05:26:49;;;;;;;;;;;;;;;7.58;57.81;101530.34;4107535;28;20021;-68
2023/04/27 05:28:51;;;;;;;;;;;;;;;7.58;57.70;101524.97;4107076;28;20037;-67
2023/04/27 05:30:55;;;;;;;;;;;;;;;7.57;58.04;101523.28;4107094;28;20028;-68
2023/04/27 05:32:57;;;;;;;;;;;;;;;7.58;58.06;101522.28;4106961;28;20029;-67
2023/04/27 05:35:00;;;;;;;;;;;;;;;7.61;58.03;101518.47;4107534;28;20021;-68
2023/04/27 05:37:02;;;;;;;;;;;;;;;7.62;58.01;101522.84;4107572;28;19958;-67
2023/04/27 05:39:04;;;;;;;;;;;;;;;7.61;57.95;101530.06;4107477;28;20022;-67
2023/04/27 05:41:06;;;;;;;;;;;;;;;7.63;57.83;101529.94;4107215;28;20032;-67
2023/04/27 05:43:08;;;;;;;;;;;;;;;7.63;57.94;101532.63;4090199;29;20361;-67
2023/04/27 05:45:11;;;;;;;;;;;;;;;7.63;58.11;101527.25;4107004;28;20009;-67
2023/04/27 05:47:16;;;;;;;;;;;;;;;7.64;57.93;101532.47;4107787;28;20025;-67
2023/04/27 05:49:18;;;;;;;;;;;;;;;7.66;57.78;101533.19;4104080;28;20448;-68
2023/04/27 05:51:20;;;;;;;;;;;;;;;7.69;57.88;101530.22;4107263;28;20029;-68
2023/04/27 05:53:22;;;;;;;;;;;;;;;7.70;58.00;101533.78;4107617;28;20382;-67
2023/04/27 05:55:25;;;;;;;;;;;;;;;7.70;58.02;101529.25;4107555;28;20034;-67
2023/04/27 05:57:27;;;;;;;;;;;;;;;7.69;57.75;101537.44;4090793;28;20018;-68
2023/04/27 05:59:29;;;;;;;;;;;;;;;7.71;57.84;101540.84;4106730;28;20372;-67
2023/04/27 06:01:31;;;;;;;;;;;;;;;7.71;57.67;101538.16;4102774;28;20029;-68
2023/04/27 06:03:35;;;;;;;;;;;;;;;7.73;57.59;101538.88;4104937;28;19945;-68
2023/04/27 06:05:37;;;;;;;;;;;;;;;7.74;57.27;101540.56;4105430;28;20402;-68
2023/04/27 06:07:40;;;;;;;;;;;;;;;7.73;57.21;101536.19;4106509;28;20017;-68
2023/04/27 06:09:42;;;;;;;;;;;;;;;7.71;57.42;101539.00;4105682;28;20026;-68
2023/04/27 06:11:45;;;;;;;;;;;;;;;7.71;57.65;101551.59;4096438;28;20033;-68
2023/04/27 06:13:47;;;;;;;;;;;;;;;7.71;57.51;101546.22;4094581;28;19931;-68
2023/04/27 06:15:49;;;;;;;;;;;;;;;7.73;56.96;101545.09;4096645;28;20017;-68
2023/04/27 06:17:51;;;;;;;;;;;;;;;7.75;57.00;101550.34;4103692;28;20025;-68
2023/04/27 06:19:55;;;;;;;;;;;;;;;7.75;56.83;101553.03;4102520;28;20029;-68
2023/04/27 06:21:57;;;;;;;;;;;;;;;7.73;56.73;101550.47;4104967;28;20017;-68
2023/04/27 06:23:58;;;;;;;;;;;;;;;7.74;56.59;101552.19;4106868;28;20425;-68
2023/04/27 06:26:00;;;;;;;;;;;;;;;7.76;56.74;101554.72;4106452;28;20049;-68
2023/04/27 06:28:02;;;;;;;;;;;;;;;7.77;56.70;101553.72;4106494;28;20002;-68
2023/04/27 06:30:05;;;;;;;;;;;;;;;7.80;56.62;101556.13;4106213;28;20049;-68
2023/04/27 06:32:07;;;;;;;;;;;;;;;7.81;56.35;101563.22;4104944;28;20380;-68
2023/04/27 06:34:09;;;;;;;;;;;;;;;7.81;56.33;101555.16;4106075;28;20053;-68
2023/04/27 06:36:12;;;;;;;;;;;;;;;7.81;55.95;101554.31;4105034;28;20092;-68
2023/04/27 06:38:15;;;;;;;;;;;;;;;7.82;55.58;101562.25;4106424;28;20020;-68
2023/04/27 06:40:17;;;;;;;;;;;;;;;7.81;55.78;101563.22;4105414;28;20029;-68
2023/04/27 06:42:19;;;;;;;;;;;;;;;7.83;55.87;101560.41;4106193;28;20036;-68
2023/04/27 06:44:23;;;;;;;;;;;;;;;7.86;55.68;101555.59;4105736;28;19937;-68
2023/04/27 06:46:25;;;;;;;;;;;;;;;7.86;55.50;101560.97;4105364;28;20390;-67
2023/04/27 06:48:27;;;;;;;;;;;;;;;7.87;55.41;101549.22;4106066;28;20020;-68
2023/04/27 06:50:29;;;;;;;;;;;;;;;7.90;55.86;101550.81;4105536;28;20452;-68
2023/04/27 06:52:33;;;;;;;;;;;;;;;7.94;55.60;101560.28;4106121;28;20053;-68
2023/04/27 06:54:35;;;;;;;;;;;;;;;7.97;55.63;101561.84;4106121;28;20036;-69
2023/04/27 06:56:37;;;;;;;;;;;;;;;8.00;55.53;101565.09;4105296;28;20016;-68
2023/04/27 06:58:39;;;;;;;;;;;;;;;8.03;55.56;101561.28;4103032;28;20005;-68
2023/04/27 07:00:41;;;;;;;;;;;;;;;8.05;55.23;101562.81;4105546;28;20022;-68
2023/04/27 07:02:43;;;;;;;;;;;;;;;8.09;54.92;101566.09;4105700;28;20473;-68
2023/04/27 07:04:45;;;;;;;;;;;;;;;8.11;54.53;101567.66;4105665;28;20394;-68
2023/04/27 07:06:47;;;;;;;;;;;;;;;8.15;54.36;101565.53;4105435;28;20358;-68
2023/04/27 07:08:50;;;;;;;;;;;;;;;8.18;54.56;101569.78;4089703;28;20020;-68
2023/04/27 07:10:52;;;;;;;;;;;;;;;8.18;53.97;101565.25;4106086;28;20020;-67
2023/04/27 07:12:54;;;;;;;;;;;;;;;8.20;53.55;101570.50;4105754;28;20013;-67
2023/04/27 07:14:56;;;;;;;;;;;;;;;8.21;53.52;101562.28;4104529;28;20042;-68
2023/04/27 07:16:58;;;;;;;;;;;;;;;8.24;53.52;101578.13;4106257;28;20021;-68
2023/04/27 07:19:00;;;;;;;;;;;;;;;8.25;53.21;101570.91;4105756;28;20022;-68
2023/04/27 07:21:02;;;;;;;;;;;;;;;8.25;53.00;101577.16;4105681;28;20029;-68
2023/04/27 07:23:05;;;;;;;;;;;;;;;8.27;53.16;101568.94;4105377;28;20551;-68
2023/04/27 07:25:09;;;;;;;;;;;;;;;8.27;53.11;101575.16;4104575;28;19957;-67
2023/04/27 07:27:11;;;;;;;;;;;;;;;8.29;53.15;101570.50;4105784;28;20017;-68
2023/04/27 07:29:13;;;;;;;;;;;;;;;8.30;52.89;101580.25;4105686;28;20413;-67
2023/04/27 07:31:15;;;;;;;;;;;;;;;8.33;53.29;101578.28;4104512;28;20033;-68
2023/04/27 07:33:17;;;;;;;;;;;;;;;8.35;52.88;101581.69;4104499;28;20068;-68
2023/04/27 07:35:19;;;;;;;;;;;;;;;8.35;52.43;101579.00;4104698;28;20026;-69
2023/04/27 07:37:21;;;;;;;;;;;;;;;8.37;52.93;101571.59;4105219;28;20012;-68
2023/04/27 07:39:25;;;;;;;;;;;;;;;8.37;52.55;101579.69;4105273;28;20022;-68
2023/04/27 07:41:29;;;;;;;;;;;;;;;8.38;52.55;101578.72;4104656;28;20034;-68
2023/04/27 07:43:32;;;;;;;;;;;;;;;8.41;52.90;101576.56;4105469;28;20017;-68
2023/04/27 07:45:36;;;;;;;;;;;;;;;8.41;52.08;101570.34;4105032;28;19934;-68
2023/04/27 07:47:38;;;;;;;;;;;;;;;8.42;52.51;101580.13;4105129;28;20021;-68
2023/04/27 07:49:40;;;;;;;;;;;;;;;8.42;52.41;101582.81;4105419;28;20005;-68
2023/04/27 07:51:42;;;;;;;;;;;;;;;8.45;52.66;101577.19;4103926;28;20333;-69
2023/04/27 07:53:45;;;;;;;;;;;;;;;8.49;52.51;101578.59;4073084;29;20369;-68
2023/04/27 07:55:48;;;;;;;;;;;;;;;8.49;52.48;101583.97;4105765;28;20369;-69
2023/04/27 07:57:52;;;;;;;;;;;;;;;8.50;52.09;101591.06;4105013;28;20020;-68
2023/04/27 07:59:53;;;;;;;;;;;;;;;8.52;52.61;101589.06;4105663;28;20028;-68
2023/04/27 08:01:56;;;;;;;;;;;;;;;8.53;52.65;101593.47;4104900;28;20025;-68
2023/04/27 08:03:58;;;;;;;;;;;;;;;8.53;52.62;101592.63;4105762;28;20022;-69
2023/04/27 08:06:00;;;;;;;;;;;;;;;8.55;52.57;101586.09;4104669;28;19926;-68
2023/04/27 08:08:02;;;;;;;;;;;;;;;8.55;52.57;101591.47;4104545;28;20034;-68
2023/04/27 08:10:05;;;;;;;;;;;;;;;8.54;51.79;101584.41;4105053;28;20033;-68
2023/04/27 08:12:07;;;;;;;;;;;;;;;8.56;52.48;101592.34;4104855;28;20096;-69
2023/04/27 08:14:12;;;;;;;;;;;;;;;8.58;52.31;101595.75;4104903;28;20337;-69
2023/04/27 08:16:14;;;;;;;;;;;;;;;8.61;52.57;101592.75;4104481;28;19971;-68
2023/04/27 08:18:16;;;;;;;;;;;;;;;8.62;52.50;101587.22;4105508;28;20468;-68
2023/04/27 08:20:18;;;;;;;;;;;;;;;8.63;52.07;101583.53;4104097;28;20021;-68
2023/04/27 08:22:20;;;;;;;;;;;;;;;8.70;52.81;101593.72;4104663;28;20013;-68
2023/04/27 08:24:22;;;;;;;;;;;;;;;8.69;51.91;101600.13;4087145;29;20013;-67
2023/04/27 08:26:24;;;;;;;;;;;;;;;8.69;51.58;101598.28;4105124;28;20041;-67
2023/04/27 08:28:26;;;;;;;;;;;;;;;8.67;51.15;101594.88;4105519;28;20041;-67
2023/04/27 08:30:30;;;;;;;;;;;;;;;8.69;51.68;101606.34;4103433;28;20020;-67
2023/04/27 08:32:32;;;;;;;;;;;;;;;8.66;50.51;101602.09;4104459;28;20373;-67
2023/04/27 08:34:34;;;;;;;;;;;;;;;8.63;50.31;101599.69;4104934;28;20029;-67
2023/04/27 08:36:36;;;;;;;;;;;;;;;8.63;50.80;101597.00;4072149;29;20500;-67
2023/04/27 08:38:38;;;;;;;;;;;;;;;8.65;51.52;101600.41;4087619;29;20033;-67
2023/04/27 08:40:43;;;;;;;;;;;;;;;8.61;51.84;101588.22;4104694;28;20028;-67
2023/04/27 08:42:53;;;;;;;;;;;;;;;8.69;52.02;101595.56;4104743;28;20046;-67
2023/04/27 08:44:57;;;;;;;;;;;;;;;8.70;51.33;101591.91;4105321;28;20049;-67
2023/04/27 08:47:01;;;;;;;;;;;;;;;8.69;50.42;101592.88;4104345;28;20029;-67
2023/04/27 08:49:03;;;;;;;;;;;;;;;8.71;51.17;101590.88;4103767;28;20029;-67
2023/04/27 08:51:05;;;;;;;;;;;;;;;8.70;50.41;101599.97;4086817;29;20334;-66
2023/04/27 08:53:16;;;;;;;;;;;;;;;8.69;50.46;101590.19;4087671;28;20021;-67
2023/04/27 08:55:18;;;;;;;;;;;;;;;8.70;51.00;101596.41;4103558;28;20489;-68
2023/04/27 08:57:20;;;;;;;;;;;;;;;8.72;51.69;101599.84;4103277;28;20017;-68
2023/04/27 08:59:22;;;;;;;;;;;;;;;8.75;51.45;101594.16;4103948;28;20079;-67
2023/04/27 09:01:26;;;;;;;;;;;;;;;8.77;51.16;101602.94;4103934;28;20350;-68
2023/04/27 09:03:29;;;;;;;;;;;;;;;8.78;51.12;101610.03;4103984;28;20021;-68
2023/04/27 09:05:31;;;;;;;;;;;;;;;8.76;50.95;101601.22;4103867;28;20049;-68
2023/04/27 09:07:33;;;;;;;;;;;;;;;8.75;51.38;101602.25;4104160;28;19934;-68
2023/04/27 09:09:35;;;;;;;;;;;;;;;8.74;51.13;101600.53;4103287;28;20013;-67
2023/04/27 09:11:38;;;;;;;;;;;;;;;8.70;51.66;101601.81;4104186;28;20049;-68
2023/04/27 09:13:40;;;;;;;;;;;;;;;8.66;51.65;101602.09;4103436;28;20047;-67
2023/04/27 09:15:43;;;;;;;;;;;;;;;8.66;52.11;101599.41;4103449;28;20033;-68
2023/04/27 09:17:45;;;;;;;;;;;;;;;8.65;52.30;101600.41;4101919;28;20009;-68
2023/04/27 09:19:49;;;;;;;;;;;;;;;8.71;52.36;101604.34;4103259;28;20021;-68
2023/04/27 09:21:51;;;;;;;;;;;;;;;8.74;52.36;101597.84;4103923;28;20040;-68
2023/04/27 09:23:53;;;;;;;;;;;;;;;8.76;52.11;101603.91;4071463;29;20057;-68
2023/04/27 09:25:55;;;;;;;;;;;;;;;8.74;51.83;101604.06;4102813;28;20028;-68
2023/04/27 09:27:58;;;;;;;;;;;;;;;8.74;51.77;101590.59;4104281;28;20029;-68
2023/04/27 09:30:00;;;;;;;;;;;;;;;8.75;51.55;101596.84;4103803;28;20468;-68
2023/04/27 09:32:03;;;;;;;;;;;;;;;8.77;51.70;101595.69;4103708;28;20013;-68
2023/04/27 09:34:05;;;;;;;;;;;;;;;8.76;51.51;101588.63;4104133;28;20022;-68
2023/04/27 09:36:09;;;;;;;;;;;;;;;8.75;51.32;101591.47;4103576;28;20216;-67
2023/04/27 09:38:11;;;;;;;;;;;;;;;8.79;51.60;101595.56;4105450;28;20021;-67
2023/04/27 09:40:13;;;;;;;;;;;;;;;8.79;51.55;101592.88;4089869;28;20464;-67
2023/04/27 09:42:18;;;;;;;;;;;;;;;8.79;51.06;101590.16;4106305;28;20013;-68
2023/04/27 09:44:20;;;;;;;;;;;;;;;8.78;51.37;101589.31;4107178;28;20025;-67
2023/04/27 09:46:22;;;;;;;;;;;;;;;8.78;51.36;101591.19;4106647;28;20017;-67
2023/04/27 09:48:25;;;;;;;;;;;;;;;8.78;51.68;101581.25;4107147;28;20387;-67
2023/04/27 09:50:27;;;;;;;;;;;;;;;8.81;51.85;101586.34;4105420;28;20017;-68
2023/04/27 09:52:30;;;;;;;;;;;;;;;8.84;51.84;101579.84;4088656;29;20021;-67
2023/04/27 09:54:33;;;;;;;;;;;;;;;8.84;51.22;101566.38;4105719;28;19957;-68
2023/04/27 09:56:37;;;;;;;;;;;;;;;8.85;51.49;101573.44;4106373;28;20425;-67
2023/04/27 09:58:54;;;;;;;;;;;;;;;8.88;51.76;101577.69;4107551;28;20060;-67
2023/04/27 10:00:59;;;;;;;;;;;;;;;8.94;51.93;101579.81;4090616;28;20010;-68
2023/04/27 10:03:08;;;;;;;;;;;;;;;8.92;51.12;101569.16;4106665;28;20033;-67
2023/04/27 10:05:16;;;;;;;;;;;;;;;8.90;51.23;101579.22;4105347;28;20037;-69
2023/04/27 10:07:18;;;;;;;;;;;;;;;8.89;51.12;101576.72;4106482;28;20033;-68
2023/04/27 10:09:25;;;;;;;;;;;;;;;8.89;51.10;101574.00;4106457;28;20374;-67
2023/04/27 10:11:33;;;;;;;;;;;;;;;8.86;50.91;101575.13;4106086;28;20389;-67
2023/04/27 10:13:35;;;;;;;;;;;;;;;8.87;51.00;101573.28;4105783;28;20029;-67
2023/04/27 10:15:40;;;;;;;;;;;;;;;8.88;51.36;101570.44;4095455;28;20037;-68
2023/04/27 10:17:48;;;;;;;;;;;;;;;8.89;51.11;101576.72;4082163;28;20168;-68
2023/04/27 10:19:53;;;;;;;;;;;;;;;8.91;51.46;101572.00;4079844;28;20581;-67
2023/04/27 10:21:56;;;;;;;;;;;;;;;8.88;51.29;101573.13;4094650;28;20056;-68
2023/04/27 10:24:06;;;;;;;;;;;;;;;8.90;51.80;101576.53;4095955;28;20456;-68
2023/04/27 10:26:10;;;;;;;;;;;;;;;8.91;51.64;101575.53;4088501;28;19934;-67
2023/04/27 10:28:15;;;;;;;;;;;;;;;8.92;51.69;101571.88;4086964;28;20029;-67
2023/04/27 10:30:18;;;;;;;;;;;;;;;8.93;51.46;101570.84;4068560;29;19938;-67
2023/04/27 10:32:22;;;;;;;;;;;;;;;8.92;50.74;101576.38;4087280;28;19934;-68
2023/04/27 10:34:23;;;;;;;;;;;;;;;8.91;51.02;101583.63;4070876;29;20037;-67
2023/04/27 10:36:34;;;;;;;;;;;;;;;8.92;51.25;101579.94;4081052;28;19940;-66
2023/04/27 10:38:40;;;;;;;;;;;;;;;8.86;49.47;101574.31;4088283;28;20480;-66
2023/04/27 10:40:43;;;;;;;;;;;;;;;8.83;50.20;101575.44;4085433;28;20471;-67